Time;durP1;ratioP1;P1;durP2;ratioP2;P2;SDS_P1;SDS_P2;PMS_P1;PMS_P2;Temp;Humidity;BMP_temperature;BMP_pressure;BME280_temperature;BME280_humidity;BME280_pressure;Samples;Min_cycle;Max_cycle;Signal;HPM_P1;HPM_P2
2022/11/15 00:00:23;;;;;;;;;;;;;;;30.72;24.69;101552.88;5077868;28;1163;-41
2022/11/15 00:02:48;;;;;;;;;;;;;;;30.89;24.44;101556.28;5073766;28;1902;-41
2022/11/15 00:05:14;;;;;;;;;;;;;;;30.57;24.92;101556.47;5063782;28;1155;-41
2022/11/15 00:07:39;;;;;;;;;;;;;;;30.28;25.48;101552.72;5074278;28;1097;-40
2022/11/15 00:10:04;;;;;;;;;;;;;;;30.67;24.88;101558.88;5077186;28;1175;-41
2022/11/15 00:12:30;;;;;;;;;;;;;;;30.89;24.56;101551.69;5078992;28;1064;-41
2022/11/15 00:14:55;;;;;;;;;;;;;;;30.75;24.45;101552.50;5077460;28;1247;-37
2022/11/15 00:17:20;;;;;;;;;;;;;;;30.08;25.65;101544.22;5073649;28;1095;-43
2022/11/15 00:19:46;;;;;;;;;;;;;;;30.57;24.79;101544.75;5075452;28;1105;-39
2022/11/15 00:22:11;;;;;;;;;;;;;;;30.91;24.33;101546.91;5077636;28;1906;-41
2022/11/15 00:24:36;;;;;;;;;;;;;;;30.83;24.46;101546.19;5077060;28;1195;-41
2022/11/15 00:27:02;;;;;;;;;;;;;;;30.01;25.73;101538.69;5077084;28;1068;-41
2022/11/15 00:29:27;;;;;;;;;;;;;;;30.49;25.06;101538.41;5072758;28;1076;-42
2022/11/15 00:31:52;;;;;;;;;;;;;;;30.81;24.73;101538.22;5077249;28;1092;-42
2022/11/15 00:34:17;;;;;;;;;;;;;;;30.97;24.47;101539.03;5072217;28;2087;-41
2022/11/15 00:36:43;;;;;;;;;;;;;;;30.19;25.48;101535.63;5076694;28;1104;-42
2022/11/15 00:39:08;;;;;;;;;;;;;;;30.42;25.41;101532.00;5076901;28;1057;-40
2022/11/15 00:41:33;;;;;;;;;;;;;;;30.65;24.77;101528.34;5072144;28;1906;-41
2022/11/15 00:43:59;;;;;;;;;;;;;;;30.81;24.56;101532.78;5074280;28;1100;-39
2022/11/15 00:46:24;;;;;;;;;;;;;;;30.92;24.05;101528.72;5067182;28;1189;-41
2022/11/15 00:48:49;;;;;;;;;;;;;;;30.00;25.81;101531.56;5072196;28;1096;-42
2022/11/15 00:51:14;;;;;;;;;;;;;;;30.61;24.95;101519.75;5076672;28;1115;-42
2022/11/15 00:53:40;;;;;;;;;;;;;;;30.99;24.41;101524.22;5071726;28;1159;-41
2022/11/15 00:56:05;;;;;;;;;;;;;;;30.37;25.18;101521.72;5075968;28;1056;-41
2022/11/15 00:58:30;;;;;;;;;;;;;;;30.22;25.49;101526.28;5076697;28;1104;-41
2022/11/15 01:00:56;;;;;;;;;;;;;;;30.28;25.20;101520.97;5062695;28;1187;-41
2022/11/15 01:03:21;;;;;;;;;;;;;;;30.55;24.86;101521.34;5067085;28;1913;-41
2022/11/15 01:05:46;;;;;;;;;;;;;;;30.80;24.53;101517.50;5071626;28;1215;-40
2022/11/15 01:08:12;;;;;;;;;;;;;;;30.73;24.59;101516.56;5076652;28;1150;-40
2022/11/15 01:10:37;;;;;;;;;;;;;;;30.08;25.47;101509.78;5076444;28;1104;-40
2022/11/15 01:13:03;;;;;;;;;;;;;;;30.71;24.78;101514.03;5076207;28;1053;-41
2022/11/15 01:15:28;;;;;;;;;;;;;;;30.83;24.35;101510.88;5076690;28;1099;-41
2022/11/15 01:17:54;;;;;;;;;;;;;;;31.17;23.47;101517.53;5074038;28;1053;-41
2022/11/15 01:20:20;;;;;;;;;;;;;;;30.26;24.64;101520.28;5076397;28;1206;-41
2022/11/15 01:22:45;;;;;;;;;;;;;;;30.28;24.75;101517.44;5075686;28;1944;-41
2022/11/15 01:25:10;;;;;;;;;;;;;;;30.74;23.90;101515.53;5076200;28;1167;-41
2022/11/15 01:27:35;;;;;;;;;;;;;;;30.90;23.67;101515.34;5075871;28;1072;-42
2022/11/15 01:30:01;;;;;;;;;;;;;;;31.08;23.43;101508.63;5075402;28;1088;-41
2022/11/15 01:32:26;;;;;;;;;;;;;;;30.64;23.54;101505.81;5075387;28;1829;-41
2022/11/15 01:34:51;;;;;;;;;;;;;;;30.50;23.80;101506.63;5072334;28;1152;-42
2022/11/15 01:37:16;;;;;;;;;;;;;;;30.54;24.16;101507.97;5075225;28;1196;-39
2022/11/15 01:39:42;;;;;;;;;;;;;;;30.66;23.91;101509.16;5065603;28;1056;-41
2022/11/15 01:42:11;;;;;;;;;;;;;;;30.83;23.76;101505.44;5069150;28;1926;-41
2022/11/15 01:44:44;;;;;;;;;;;;;;;31.13;23.42;101511.63;5057519;28;1143;-40
2022/11/15 01:47:12;;;;;;;;;;;;;;;30.91;23.39;101506.16;5057697;28;1148;-43
2022/11/15 01:49:38;;;;;;;;;;;;;;;30.65;23.71;101510.19;5075901;28;1135;-41
2022/11/15 01:52:03;;;;;;;;;;;;;;;29.65;25.10;101499.47;5057664;28;1100;-41
2022/11/15 01:54:29;;;;;;;;;;;;;;;30.68;23.82;101503.53;5074284;28;892;-42
2022/11/15 01:57:01;;;;;;;;;;;;;;;31.14;23.32;101501.59;5075984;28;1076;-42
2022/11/15 01:59:27;;;;;;;;;;;;;;;30.29;23.84;101487.38;5058368;28;1136;-40
2022/11/15 02:01:52;;;;;;;;;;;;;;;30.08;24.62;101498.91;5075408;28;1948;-41
2022/11/15 02:04:27;;;;;;;;;;;;;;;30.62;23.99;101488.84;5062024;28;1926;-41
2022/11/15 02:06:53;;;;;;;;;;;;;;;30.84;23.76;101483.50;5065074;28;1241;-40
2022/11/15 02:09:18;;;;;;;;;;;;;;;30.92;23.40;101490.69;5072170;28;1199;-41
2022/11/15 02:11:43;;;;;;;;;;;;;;;31.07;23.38;101492.53;5075431;28;1084;-42
2022/11/15 02:14:09;;;;;;;;;;;;;;;30.95;23.57;101492.22;5043630;28;1251;-40
2022/11/15 02:16:34;;;;;;;;;;;;;;;30.27;23.96;101491.28;5058100;28;1092;-41
2022/11/15 02:18:59;;;;;;;;;;;;;;;30.08;24.63;101485.34;5065435;28;1183;-42
2022/11/15 02:21:43;;;;;;;;;;;;;;;30.63;23.92;101487.81;5073779;28;1159;-40
2022/11/15 02:24:38;;;;;;;;;;;;;;;31.04;23.26;101488.31;5075506;28;1128;-43
2022/11/15 02:27:06;;;;;;;;;;;;;;;30.93;23.01;101497.81;5000659;28;1109;-42
2022/11/15 02:29:34;;;;;;;;;;;;;;;30.28;23.81;101484.84;5070062;28;1061;-41
2022/11/15 02:32:18;;;;;;;;;;;;;;;30.40;23.95;101483.34;5064746;28;891;-41
2022/11/15 02:34:47;;;;;;;;;;;;;;;30.66;23.93;101481.19;5057590;28;1108;-39
2022/11/15 02:37:12;;;;;;;;;;;;;;;30.89;23.29;101486.50;5075616;28;1100;-42
2022/11/15 02:39:37;;;;;;;;;;;;;;;31.07;23.20;101482.50;5075455;28;1076;-41
2022/11/15 02:42:04;;;;;;;;;;;;;;;31.03;23.14;101484.75;5074426;28;1898;-41
2022/11/15 02:44:39;;;;;;;;;;;;;;;30.68;23.42;101474.50;5062093;28;1131;-42
2022/11/15 02:47:15;;;;;;;;;;;;;;;29.57;24.90;101473.25;5057172;28;1089;-42
2022/11/15 02:49:45;;;;;;;;;;;;;;;30.42;24.05;101478.56;5058731;28;1191;-41
2022/11/15 02:52:14;;;;;;;;;;;;;;;30.71;23.64;101467.03;5043170;28;1017;-41
2022/11/15 02:54:39;;;;;;;;;;;;;;;30.90;23.28;101471.03;5071743;28;1119;-42
2022/11/15 02:57:05;;;;;;;;;;;;;;;31.05;23.03;101462.81;5072554;28;1096;-44
2022/11/15 02:59:43;;;;;;;;;;;;;;;31.14;23.26;101466.28;5061213;28;1128;-40
2022/11/15 03:02:11;;;;;;;;;;;;;;;30.53;23.58;101460.97;5078669;28;1949;-42
2022/11/15 03:04:36;;;;;;;;;;;;;;;30.35;24.33;101460.50;5065115;28;1911;-40
2022/11/15 03:07:05;;;;;;;;;;;;;;;30.85;23.55;101455.31;5070990;28;1174;-41
2022/11/15 03:09:47;;;;;;;;;;;;;;;31.11;23.07;101464.78;5075714;28;1210;-43
2022/11/15 03:12:34;;;;;;;;;;;;;;;31.00;23.01;101460.69;5078772;28;1041;-43
2022/11/15 03:15:10;;;;;;;;;;;;;;;30.16;24.18;101454.59;5060748;28;1261;-42
2022/11/15 03:17:40;;;;;;;;;;;;;;;30.53;23.94;101454.69;5078868;28;1151;-42
2022/11/15 03:20:06;;;;;;;;;;;;;;;30.70;23.53;101454.50;5052094;28;938;-40
2022/11/15 03:22:35;;;;;;;;;;;;;;;30.90;23.56;101455.56;5060688;28;1910;-41
2022/11/15 03:25:03;;;;;;;;;;;;;;;31.06;23.16;101456.38;5078061;28;1119;-42
2022/11/15 03:27:29;;;;;;;;;;;;;;;30.88;23.41;101448.66;5078627;28;1170;-41
2022/11/15 03:29:56;;;;;;;;;;;;;;;30.58;23.42;101444.09;5060648;28;1073;-42
2022/11/15 03:32:25;;;;;;;;;;;;;;;29.58;25.15;101447.81;5053108;28;1986;-40
2022/11/15 03:34:52;;;;;;;;;;;;;;;30.51;24.09;101443.19;5059259;28;1152;-41
2022/11/15 03:37:17;;;;;;;;;;;;;;;30.92;23.31;101439.94;5060439;28;1171;-42
2022/11/15 03:39:42;;;;;;;;;;;;;;;31.18;23.05;101440.38;5060215;28;1410;-42
2022/11/15 03:42:08;;;;;;;;;;;;;;;30.64;23.50;101437.91;5059911;28;1898;-43
2022/11/15 03:44:36;;;;;;;;;;;;;;;29.93;24.71;101433.78;5068568;28;981;-41
2022/11/15 03:47:20;;;;;;;;;;;;;;;30.49;23.95;101435.22;5078284;28;1159;-41
2022/11/15 03:49:46;;;;;;;;;;;;;;;30.81;23.50;101434.16;5077865;28;1080;-42
2022/11/15 03:52:11;;;;;;;;;;;;;;;30.92;23.46;101425.50;5059695;28;1489;-41
2022/11/15 03:54:37;;;;;;;;;;;;;;;31.20;23.06;101419.28;5058694;28;1105;-42
2022/11/15 03:57:02;;;;;;;;;;;;;;;30.93;23.29;101421.75;5069556;28;1112;-42
2022/11/15 03:59:27;;;;;;;;;;;;;;;30.37;23.81;101415.88;5077625;28;1199;-42
2022/11/15 04:01:53;;;;;;;;;;;;;;;29.65;25.03;101418.16;5077696;28;1894;-43
2022/11/15 04:04:18;;;;;;;;;;;;;;;30.63;23.92;101414.50;5063778;28;1119;-42
2022/11/15 04:06:43;;;;;;;;;;;;;;;30.87;23.53;101425.22;5075190;28;1103;-42
2022/11/15 04:09:08;;;;;;;;;;;;;;;31.14;23.11;101420.06;5072239;28;1116;-41
2022/11/15 04:11:34;;;;;;;;;;;;;;;31.02;22.97;101420.59;5077620;28;1077;-43
2022/11/15 04:13:59;;;;;;;;;;;;;;;30.25;24.02;101417.38;5076994;28;1212;-40
2022/11/15 04:16:24;;;;;;;;;;;;;;;30.38;24.16;101416.72;5077124;28;1107;-43
2022/11/15 04:24:11;;;;;;;;;;;;;;;30.73;23.66;101421.50;5076223;28;1120;-41
2022/11/15 04:24:19;;;;;;;;;;;;;;;31.20;23.18;101426.63;5077043;28;1151;-42
2022/11/15 04:26:44;;;;;;;;;;;;;;;30.97;23.25;101419.47;5076918;28;1143;-43
2022/11/15 04:31:53;;;;;;;;;;;;;;;27.71;22.57;101415.72;5062606;28;1179;-40
2022/11/15 04:34:18;;;;;;;;;;;;;;;27.03;23.50;101413.97;5073682;28;2227;-42
2022/11/15 04:39:27;;;;;;;;;;;;;;;26.88;25.91;101411.03;5065281;28;1295;-39
2022/11/15 04:41:53;;;;;;;;;;;;;;;27.25;25.32;101403.53;5075575;28;1898;-40
2022/11/15 04:44:18;;;;;;;;;;;;;;;27.18;25.48;101410.59;5071297;28;892;-41
2022/11/15 04:46:43;;;;;;;;;;;;;;;27.31;25.20;101410.13;5076512;28;1115;-40
2022/11/15 04:49:08;;;;;;;;;;;;;;;27.13;24.99;101405.72;5076666;28;1127;-40
2022/11/15 04:51:34;;;;;;;;;;;;;;;26.60;23.97;101408.59;5077214;28;1151;-37
2022/11/15 04:53:59;;;;;;;;;;;;;;;25.59;26.43;101398.25;5075831;28;1156;-40
2022/11/15 04:56:24;;;;;;;;;;;;;;;26.64;25.17;101394.63;5072748;28;844;-41
2022/11/15 04:58:49;;;;;;;;;;;;;;;27.43;23.38;101394.41;5069117;28;1439;-40
2022/11/15 05:01:15;;;;;;;;;;;;;;;25.56;24.76;101394.00;5071919;28;1100;-41
2022/11/15 05:06:27;;;;;;;;;;;;;;;25.69;25.56;101401.72;5068855;28;811;-38
2022/11/15 05:08:52;;;;;;;;;;;;;;;24.48;27.19;101400.97;5068012;28;903;-39
2022/11/15 05:11:17;;;;;;;;;;;;;;;24.36;26.52;101401.19;5075466;28;1132;-40
2022/11/15 05:13:43;;;;;;;;;;;;;;;24.49;26.46;101398.13;5075512;28;1145;-40
2022/11/15 05:16:08;;;;;;;;;;;;;;;24.26;26.83;101395.84;5075278;28;1148;-38
2022/11/15 05:18:34;;;;;;;;;;;;;;;24.15;27.16;101396.84;5074648;28;2746;-39
2022/11/15 05:21:05;;;;;;;;;;;;;;;23.84;27.13;101395.22;5074986;28;926;-41
2022/11/15 05:23:31;;;;;;;;;;;;;;;23.46;27.79;101403.22;5061865;28;1985;-37
2022/11/15 05:25:59;;;;;;;;;;;;;;;23.41;27.73;101401.94;5075514;28;1123;-38
2022/11/15 05:28:25;;;;;;;;;;;;;;;22.91;28.49;101412.59;5075840;28;1151;-39
2022/11/15 05:30:50;;;;;;;;;;;;;;;22.44;29.32;101402.44;5076223;28;1151;-37
2022/11/15 05:33:15;;;;;;;;;;;;;;;22.91;28.76;101409.91;5075544;28;2262;-39
2022/11/15 05:35:41;;;;;;;;;;;;;;;22.78;28.65;101412.00;5076111;28;1139;-39
2022/11/15 05:38:07;;;;;;;;;;;;;;;22.92;28.77;101402.72;5076359;28;1143;-41
2022/11/15 05:40:32;;;;;;;;;;;;;;;22.98;28.79;101404.84;5075590;28;1253;-39
2022/11/15 05:42:57;;;;;;;;;;;;;;;22.24;29.39;101405.88;5075826;28;1894;-39
2022/11/15 05:45:22;;;;;;;;;;;;;;;22.48;29.21;101402.03;5075693;28;962;-40
2022/11/15 05:47:48;;;;;;;;;;;;;;;22.68;28.83;101406.63;5076167;28;1108;-39
2022/11/15 05:50:13;;;;;;;;;;;;;;;21.58;30.41;101406.97;5075561;28;1143;-38
2022/11/15 05:52:39;;;;;;;;;;;;;;;22.14;29.69;101400.47;5072580;28;1291;-39
2022/11/15 05:55:04;;;;;;;;;;;;;;;22.21;29.65;101399.91;5070127;28;993;-38
2022/11/15 05:57:29;;;;;;;;;;;;;;;21.70;30.61;101399.75;5054538;28;934;-38
2022/11/15 05:59:55;;;;;;;;;;;;;;;22.14;30.05;101400.47;5075569;28;978;-40
2022/11/15 06:02:20;;;;;;;;;;;;;;;22.30;29.76;101392.91;5074795;28;2317;-39
2022/11/15 06:04:45;;;;;;;;;;;;;;;22.17;29.83;101410.03;5075058;28;1230;-40
2022/11/15 06:07:10;;;;;;;;;;;;;;;22.44;30.22;101400.59;5062991;28;1071;-43
2022/11/15 06:09:36;;;;;;;;;;;;;;;23.43;29.11;101403.50;5068201;28;913;-42
2022/11/15 06:12:01;;;;;;;;;;;;;;;23.86;28.60;101413.91;5075700;28;1088;-41
2022/11/15 06:14:26;;;;;;;;;;;;;;;24.08;28.17;101415.41;5075464;28;1226;-40
2022/11/15 06:16:52;;;;;;;;;;;;;;;25.18;26.89;101399.56;5075519;28;1099;-42
2022/11/15 06:19:17;;;;;;;;;;;;;;;25.04;27.01;101404.50;5075950;28;1138;-41
2022/11/15 06:21:42;;;;;;;;;;;;;;;24.72;28.02;101411.19;5075350;28;1952;-43
2022/11/15 06:24:07;;;;;;;;;;;;;;;25.50;27.18;101410.78;5075096;28;1092;-40
2022/11/15 06:26:33;;;;;;;;;;;;;;;26.13;26.48;101408.88;5075270;28;1119;-42
2022/11/15 06:28:58;;;;;;;;;;;;;;;25.56;27.75;101405.63;5073162;28;2175;-42
2022/11/15 06:31:23;;;;;;;;;;;;;;;25.28;28.29;101410.25;5070575;28;2793;-41
2022/11/15 06:33:49;;;;;;;;;;;;;;;24.48;29.79;101412.59;5075873;28;1805;-41
2022/11/15 06:36:16;;;;;;;;;;;;;;;24.93;29.16;101419.03;5066768;28;2075;-41
2022/11/15 06:38:41;;;;;;;;;;;;;;;25.09;28.72;101412.09;5076721;28;2356;-41
2022/11/15 06:41:07;;;;;;;;;;;;;;;25.07;28.59;101406.03;5075341;28;2083;-43
2022/11/15 06:43:33;;;;;;;;;;;;;;;25.66;28.05;101405.56;5071851;28;2122;-42
2022/11/15 06:45:59;;;;;;;;;;;;;;;26.11;27.50;101407.38;5069790;28;1808;-41
2022/11/15 06:48:24;;;;;;;;;;;;;;;25.77;27.99;101404.47;5078869;28;1150;-43
2022/11/15 06:50:50;;;;;;;;;;;;;;;25.65;27.91;101403.03;5079239;28;1088;-41
2022/11/15 06:53:16;;;;;;;;;;;;;;;26.43;27.77;101411.25;5078417;28;1135;-43
2022/11/15 06:55:41;;;;;;;;;;;;;;;26.59;27.17;101406.94;5078333;28;1235;-41
2022/11/15 06:58:06;;;;;;;;;;;;;;;26.06;27.81;101405.13;5078175;28;990;-44
2022/11/15 07:00:31;;;;;;;;;;;;;;;26.61;27.04;101413.84;5071430;28;1362;-43
2022/11/15 07:02:59;;;;;;;;;;;;;;;27.20;26.47;101414.00;5078754;28;1969;-44
2022/11/15 07:05:24;;;;;;;;;;;;;;;26.32;26.94;101409.66;5078818;28;1099;-44
2022/11/15 07:07:53;;;;;;;;;;;;;;;26.39;27.52;101415.28;5078439;28;1179;-43
2022/11/15 07:10:18;;;;;;;;;;;;;;;27.11;26.50;101413.16;5078115;28;901;-43
2022/11/15 07:12:46;;;;;;;;;;;;;;;26.61;26.31;101413.00;5078697;28;1151;-44
2022/11/15 07:15:11;;;;;;;;;;;;;;;26.24;26.92;101404.22;5077965;28;2597;-43
2022/11/15 07:17:37;;;;;;;;;;;;;;;26.99;26.46;101405.31;5078282;28;1210;-44
2022/11/15 07:20:03;;;;;;;;;;;;;;;27.08;25.96;101413.47;5078512;28;1187;-44
2022/11/15 07:22:28;;;;;;;;;;;;;;;25.90;26.08;101404.03;5078379;28;1961;-40
2022/11/15 07:24:53;;;;;;;;;;;;;;;25.36;26.57;101401.44;5078139;28;1103;-41
2022/11/15 07:27:19;;;;;;;;;;;;;;;24.96;26.69;101409.78;5077797;28;1119;-41
2022/11/15 07:29:44;;;;;;;;;;;;;;;24.75;27.04;101413.59;5073315;28;1322;-41
2022/11/15 07:32:09;;;;;;;;;;;;;;;24.65;27.21;101408.25;5078084;28;1103;-40
2022/11/15 07:34:35;;;;;;;;;;;;;;;24.57;27.23;101405.47;5077755;28;905;-37
2022/11/15 07:37:00;;;;;;;;;;;;;;;24.68;27.21;101407.09;5077859;28;1131;-39
2022/11/15 07:39:25;;;;;;;;;;;;;;;24.67;27.46;101405.41;5076019;28;1320;-41
2022/11/15 07:42:52;;;;;;;;;;;;;;;24.48;28.07;101406.34;5076546;28;1963;-37
2022/11/15 07:44:36;;;;;;;;;;;;;;;24.43;27.82;101404.13;5076617;28;1824;-40
2022/11/15 07:47:01;;;;;;;;;;;;;;;24.35;27.84;101404.88;5078375;28;1160;-39
2022/11/15 07:49:26;;;;;;;;;;;;;;;24.39;27.84;101408.94;5078124;28;1104;-43
2022/11/15 07:51:51;;;;;;;;;;;;;;;24.30;27.89;101402.63;5077422;28;1142;-38
2022/11/15 07:54:17;;;;;;;;;;;;;;;24.23;27.94;101401.50;5077875;28;1147;-39
2022/11/15 07:56:42;;;;;;;;;;;;;;;24.31;28.16;101390.88;5077390;28;1147;-40
2022/11/15 07:59:07;;;;;;;;;;;;;;;24.40;28.00;101399.91;5077759;28;1198;-42
2022/11/15 08:01:33;;;;;;;;;;;;;;;24.20;28.52;101394.59;5077862;28;1186;-39
2022/11/15 08:03:58;;;;;;;;;;;;;;;24.05;28.50;101396.03;5077892;28;1972;-38
2022/11/15 08:06:23;;;;;;;;;;;;;;;24.13;28.33;101401.53;5077126;28;1190;-42
2022/11/15 08:08:48;;;;;;;;;;;;;;;24.14;28.40;101400.50;5077232;28;1116;-40
2022/11/15 08:11:14;;;;;;;;;;;;;;;24.04;28.73;101403.25;5070280;28;1342;-40
2022/11/15 08:13:39;;;;;;;;;;;;;;;24.08;28.56;101391.22;5077572;28;1178;-39
2022/11/15 08:16:05;;;;;;;;;;;;;;;24.21;28.30;101398.13;5076689;28;2775;-40
2022/11/15 08:18:30;;;;;;;;;;;;;;;24.30;28.19;101397.25;5077945;28;1346;-37
2022/11/15 08:20:58;;;;;;;;;;;;;;;24.17;28.58;101391.38;5084003;28;1139;-41
2022/11/15 08:23:23;;;;;;;;;;;;;;;24.17;28.35;101394.03;5076947;28;1969;-39
2022/11/15 08:25:49;;;;;;;;;;;;;;;24.16;28.33;101385.13;5077344;28;1104;-42
2022/11/15 08:28:15;;;;;;;;;;;;;;;24.24;28.42;101394.31;5077275;28;1186;-42
2022/11/15 08:30:41;;;;;;;;;;;;;;;24.25;28.43;101393.31;5077215;28;1120;-37
2022/11/15 08:33:09;;;;;;;;;;;;;;;24.35;28.10;101391.44;5070393;28;1210;-41
2022/11/15 08:35:34;;;;;;;;;;;;;;;24.37;28.26;101385.91;5070047;28;1103;-41
2022/11/15 08:37:59;;;;;;;;;;;;;;;24.34;28.22;101379.81;5075993;28;1281;-40
2022/11/15 08:40:26;;;;;;;;;;;;;;;24.30;28.40;101381.13;5076998;28;1056;-37
2022/11/15 08:42:52;;;;;;;;;;;;;;;24.29;28.03;101379.41;5067759;28;1979;-41
2022/11/15 08:45:17;;;;;;;;;;;;;;;24.28;27.89;101377.72;5070768;28;2352;-39
2022/11/15 08:47:42;;;;;;;;;;;;;;;24.37;27.85;101377.81;5071100;28;1263;-42
2022/11/15 08:50:08;;;;;;;;;;;;;;;24.20;28.23;101374.94;5056491;28;1170;-39
2022/11/15 08:52:33;;;;;;;;;;;;;;;24.26;28.06;101366.25;5068991;28;1182;-41
2022/11/15 08:54:58;;;;;;;;;;;;;;;24.31;28.24;101355.06;5076347;28;1238;-39
2022/11/15 08:57:24;;;;;;;;;;;;;;;24.41;28.04;101363.06;5076297;28;1127;-42
2022/11/15 08:59:49;;;;;;;;;;;;;;;24.40;28.03;101362.25;5076371;28;1091;-42
2022/11/15 09:02:15;;;;;;;;;;;;;;;24.18;28.81;101352.72;5076475;28;1918;-41
2022/11/15 09:04:43;;;;;;;;;;;;;;;24.86;28.55;101355.19;5076886;28;1131;-40
2022/11/15 09:07:11;;;;;;;;;;;;;;;24.53;28.09;101347.59;5075955;28;1112;-38
2022/11/15 09:09:37;;;;;;;;;;;;;;;24.52;29.06;101341.38;5076013;28;1187;-38
2022/11/15 09:12:02;;;;;;;;;;;;;;;25.49;27.37;101342.59;5076388;28;1175;-40
2022/11/15 09:14:28;;;;;;;;;;;;;;;25.47;27.67;101335.69;5073728;28;2235;-39
2022/11/15 09:16:53;;;;;;;;;;;;;;;25.10;27.50;101332.19;5073119;28;1140;-41
2022/11/15 09:19:18;;;;;;;;;;;;;;;24.55;28.16;101341.06;5076407;28;1135;-41
2022/11/15 09:21:44;;;;;;;;;;;;;;;24.68;28.66;101332.63;5070691;28;1080;-41
2022/11/15 09:24:09;;;;;;;;;;;;;;;24.61;28.37;101328.03;5075937;28;1972;-38
2022/11/15 09:26:34;;;;;;;;;;;;;;;24.57;28.79;101332.84;5076776;28;1095;-41
2022/11/15 09:29:01;;;;;;;;;;;;;;;25.41;28.30;101326.38;5076463;28;1190;-40
2022/11/15 09:31:26;;;;;;;;;;;;;;;25.87;27.63;101328.91;5076108;28;1206;-39
2022/11/15 09:33:51;;;;;;;;;;;;;;;25.16;27.49;101323.50;5075606;28;1127;-37
2022/11/15 09:36:17;;;;;;;;;;;;;;;24.60;28.60;101323.63;5075581;28;1123;-41
2022/11/15 09:38:42;;;;;;;;;;;;;;;25.74;28.43;101320.41;5075978;28;1131;-40
2022/11/15 09:41:13;;;;;;;;;;;;;;;26.29;27.55;101313.72;5075838;28;1131;-36
2022/11/15 09:43:42;;;;;;;;;;;;;;;26.64;27.23;101316.34;5075848;28;1902;-39
2022/11/15 09:46:26;;;;;;;;;;;;;;;27.13;26.71;101308.50;5067287;28;2586;-40
2022/11/15 09:48:54;;;;;;;;;;;;;;;27.68;25.93;101308.78;5075753;28;1139;-37
2022/11/15 09:51:22;;;;;;;;;;;;;;;28.01;25.60;101302.41;5058016;28;1195;-40
2022/11/15 09:53:55;;;;;;;;;;;;;;;28.20;25.57;101308.41;5075589;28;1174;-38
2022/11/15 09:56:20;;;;;;;;;;;;;;;27.09;26.53;101299.06;5057642;28;1119;-37
2022/11/15 09:59:04;;;;;;;;;;;;;;;26.59;27.50;101291.72;5058067;28;1096;-41
2022/11/15 10:01:35;;;;;;;;;;;;;;;27.85;25.75;101295.22;5063378;28;1517;-39
2022/11/15 10:04:01;;;;;;;;;;;;;;;26.70;27.41;101285.19;5075802;28;1909;-39
2022/11/15 10:06:26;;;;;;;;;;;;;;;26.92;27.05;101290.94;5079896;28;1108;-39
2022/11/15 10:08:51;;;;;;;;;;;;;;;27.45;26.14;101284.31;5079853;28;1390;-40
2022/11/15 10:11:27;;;;;;;;;;;;;;;26.70;26.55;101285.19;5079176;28;1159;-39
2022/11/15 10:13:53;;;;;;;;;;;;;;;26.39;27.81;101280.41;5079892;28;1172;-37
2022/11/15 10:16:33;;;;;;;;;;;;;;;27.14;26.47;101275.09;5048031;28;2370;-41
2022/11/15 10:18:58;;;;;;;;;;;;;;;26.67;26.60;101271.16;5061668;28;1230;-39
2022/11/15 10:21:27;;;;;;;;;;;;;;;26.17;27.41;101263.81;5079591;28;1179;-39
2022/11/15 10:23:52;;;;;;;;;;;;;;;26.48;27.77;101263.22;5061488;28;1971;-41
2022/11/15 10:26:18;;;;;;;;;;;;;;;27.07;26.83;101256.03;5061444;28;1143;-41
2022/11/15 10:28:43;;;;;;;;;;;;;;;26.57;26.94;101252.44;5079347;28;1210;-39
2022/11/15 10:31:20;;;;;;;;;;;;;;;26.13;27.43;101252.50;5079437;28;1159;-40
2022/11/15 10:33:45;;;;;;;;;;;;;;;26.73;27.25;101240.81;5079154;28;1056;-39
2022/11/15 10:36:11;;;;;;;;;;;;;;;26.58;27.10;101240.63;5061302;28;1187;-40
2022/11/15 10:38:49;;;;;;;;;;;;;;;26.15;27.69;101244.25;5076551;28;1350;-40
2022/11/15 10:41:14;;;;;;;;;;;;;;;26.60;27.52;101241.31;5071162;28;1340;-41
2022/11/15 10:43:39;;;;;;;;;;;;;;;27.02;26.90;101231.38;5059001;28;1906;-40
2022/11/15 10:46:17;;;;;;;;;;;;;;;26.85;26.43;101234.06;5059342;28;2460;-41
2022/11/15 10:48:44;;;;;;;;;;;;;;;26.20;27.40;101222.19;5072665;28;1202;-39
2022/11/15 10:51:18;;;;;;;;;;;;;;;26.32;27.78;101220.00;5078876;28;1119;-41
2022/11/15 10:53:44;;;;;;;;;;;;;;;26.39;27.14;101213.81;5061187;28;1140;-41
2022/11/15 10:56:11;;;;;;;;;;;;;;;26.01;27.80;101218.75;5072380;28;1338;-41
2022/11/15 15:20:07;;;;;;;;;;;;;;;23.90;31.08;100929.00;4968668;28;2077;-33
2022/11/15 15:22:32;;;;;;;;;;;;;;;24.05;30.68;100931.09;5868574;23;7291;-29
2022/11/15 15:24:58;;;;;;;;;;;;;;;23.99;30.81;100926.38;4975055;28;2488;-17
2022/11/15 15:27:23;;;;;;;;;;;;;;;23.96;30.60;100925.69;4975684;28;1750;-18
2022/11/15 15:29:48;;;;;;;;;;;;;;;23.84;30.71;100913.47;4979505;28;1890;-18
2022/11/15 15:32:13;;;;;;;;;;;;;;;23.79;30.83;100915.81;4971268;28;1864;-18
2022/11/15 15:34:39;;;;;;;;;;;;;;;23.76;30.88;100918.78;4977709;28;1857;-16
2022/11/15 15:37:19;;;;;;;;;;;;;;;23.66;31.05;100921.56;4976211;28;1812;-17
2022/11/15 15:39:44;;;;;;;;;;;;;;;23.68;30.97;100923.13;4958271;28;1900;-17
2022/11/15 15:42:09;;;;;;;;;;;;;;;23.63;31.16;100917.38;4981293;28;1906;-17
2022/11/15 15:44:34;;;;;;;;;;;;;;;23.28;31.49;100922.56;4991241;28;1109;-18
2022/11/15 15:47:00;;;;;;;;;;;;;;;23.24;31.44;100919.34;4979017;28;1129;-17
2022/11/15 15:49:25;;;;;;;;;;;;;;;23.24;31.54;100916.66;4978959;28;905;-17
2022/11/15 15:51:50;;;;;;;;;;;;;;;22.92;31.97;100912.63;4978682;28;1378;-17
2022/11/15 15:54:16;;;;;;;;;;;;;;;22.95;32.03;100906.13;4978985;28;964;-17
2022/11/15 15:56:41;;;;;;;;;;;;;;;23.07;31.90;100912.13;4979379;28;1161;-17
2022/11/15 15:59:06;;;;;;;;;;;;;;;23.22;31.58;100910.59;4989343;28;1085;-17
2022/11/15 16:01:31;;;;;;;;;;;;;;;22.92;31.92;100904.56;4978304;28;1072;-17
2022/11/15 16:03:57;;;;;;;;;;;;;;;22.80;32.22;100903.13;4979104;28;1895;-17
2022/11/15 16:06:44;;;;;;;;;;;;;;;22.80;32.17;100895.06;4978999;28;1110;-17
2022/11/15 16:09:13;;;;;;;;;;;;;;;22.72;32.36;100903.88;4974731;28;2279;-17
2022/11/15 16:11:38;;;;;;;;;;;;;;;22.67;32.61;100901.59;4976959;28;1161;-17
2022/11/15 16:14:03;;;;;;;;;;;;;;;22.64;32.56;100893.88;4979093;28;1090;-17
2022/11/15 16:16:29;;;;;;;;;;;;;;;22.79;32.44;100891.53;4978955;28;1129;-17
2022/11/15 16:18:54;;;;;;;;;;;;;;;23.41;31.59;100903.41;4967347;28;1161;-18
2022/11/15 16:21:19;;;;;;;;;;;;;;;23.73;31.12;100895.78;4978612;28;1122;-18
2022/11/15 16:23:45;;;;;;;;;;;;;;;23.87;31.05;100898.91;4977650;28;1903;-18
2022/11/15 16:26:22;;;;;;;;;;;;;;;23.94;30.92;100890.06;4978605;28;1420;-18
2022/11/15 16:28:48;;;;;;;;;;;;;;;23.93;31.18;100892.91;4978525;28;1249;-17
2022/11/15 16:31:14;;;;;;;;;;;;;;;23.96;31.08;100896.13;4977816;28;1557;-17
2022/11/15 16:33:39;;;;;;;;;;;;;;;24.06;30.94;100896.00;4992021;28;1157;-17
2022/11/15 16:36:05;;;;;;;;;;;;;;;24.07;30.93;100897.69;4978294;28;1192;-17
2022/11/15 16:38:31;;;;;;;;;;;;;;;24.06;31.14;100885.25;4960892;28;1181;-17
2022/11/15 16:40:56;;;;;;;;;;;;;;;24.09;31.11;100886.78;4979255;28;2542;-18
2022/11/15 16:43:21;;;;;;;;;;;;;;;24.13;31.05;100888.16;4977960;28;1979;-18
2022/11/15 16:45:47;;;;;;;;;;;;;;;23.49;31.46;100878.47;4977439;28;1272;-19
2022/11/15 16:48:20;;;;;;;;;;;;;;;23.38;31.87;100876.00;4978130;28;1050;-19
2022/11/15 16:50:46;;;;;;;;;;;;;;;23.38;31.79;100871.50;4977391;28;1014;-19
2022/11/15 16:53:11;;;;;;;;;;;;;;;23.57;32.33;100875.84;4977452;28;1130;-20
2022/11/15 16:55:36;;;;;;;;;;;;;;;23.93;31.80;100877.63;4978354;28;1103;-19
2022/11/15 16:58:01;;;;;;;;;;;;;;;23.97;31.75;100872.78;4978067;28;1098;-21
2022/11/15 17:00:27;;;;;;;;;;;;;;;23.87;31.55;100870.22;4977408;28;932;-20
2022/11/15 17:02:52;;;;;;;;;;;;;;;23.81;31.47;100866.31;4977675;28;1977;-20
2022/11/15 17:05:18;;;;;;;;;;;;;;;24.03;31.30;100863.22;4977726;28;1200;-19
2022/11/15 17:07:45;;;;;;;;;;;;;;;24.15;31.16;100874.56;4978325;28;1185;-20
2022/11/15 17:10:11;;;;;;;;;;;;;;;24.15;31.54;100869.19;4969040;28;2293;-19
2022/11/15 17:12:36;;;;;;;;;;;;;;;24.20;31.24;100875.81;4977261;28;1201;-19
2022/11/15 17:15:03;;;;;;;;;;;;;;;24.09;31.29;100873.34;4977680;28;1138;-19
2022/11/15 17:17:28;;;;;;;;;;;;;;;24.09;31.12;100871.50;4978084;28;1122;-19